createdAt,value
2022-08-10T00:02:59.925Z,0
2022-08-10T00:08:42.419Z,4.8
2022-08-10T00:14:13.989Z,0
2022-08-10T00:20:02.310Z,0
2022-08-10T00:25:20.972Z,0
2022-08-10T00:30:55.906Z,0
2022-08-10T00:36:36.304Z,0
2022-08-10T00:42:09.176Z,0
2022-08-10T00:47:41.654Z,0
2022-08-10T00:53:16.571Z,0
2022-08-10T00:58:51.639Z,0
2022-08-10T01:04:36.874Z,0
2022-08-10T01:10:01.249Z,0
2022-08-10T01:15:32.315Z,0
2022-08-10T01:21:27.088Z,0
2022-08-10T01:27:01.351Z,0
2022-08-10T01:32:24.877Z,0
2022-08-10T01:37:58.653Z,0
2022-08-10T01:43:29.501Z,0
2022-08-10T01:49:06.388Z,0
2022-08-10T01:54:49.994Z,0
2022-08-10T02:00:23.568Z,0
2022-08-10T02:05:54.731Z,0
2022-08-10T02:11:56.188Z,0
2022-08-10T02:17:58.910Z,0
2022-08-10T02:22:40.679Z,0
2022-08-10T02:28:30.639Z,0
2022-08-10T02:34:04.141Z,0
2022-08-10T02:39:33.143Z,0
2022-08-10T02:45:17.307Z,0
2022-08-10T02:50:34.625Z,0
2022-08-10T02:56:09.790Z,0
2022-08-10T03:01:47.051Z,0
2022-08-10T03:07:42.736Z,0
2022-08-10T03:13:15.887Z,0
2022-08-10T03:18:30.035Z,0
2022-08-10T03:24:18.826Z,0
2022-08-10T03:30:23.736Z,0
2022-08-10T03:35:23.655Z,0
2022-08-10T03:40:45.027Z,0
2022-08-10T03:46:19.812Z,0
2022-08-10T03:52:10.684Z,0
2022-08-10T03:57:41.860Z,2.4
2022-08-10T04:03:20.554Z,3.6
2022-08-10T04:08:50.455Z,2.4
2022-08-10T04:14:38.897Z,3.6
2022-08-10T04:19:59.977Z,0
2022-08-10T04:25:46.683Z,0
2022-08-10T04:31:17.603Z,0
2022-08-10T04:36:35.376Z,2.4
2022-08-10T04:42:29.736Z,0
2022-08-10T04:47:51.277Z,0
2022-08-10T04:53:26.964Z,0
2022-08-10T04:59:06.369Z,3.6
2022-08-10T05:04:48.139Z,0
2022-08-10T05:10:14.771Z,4.8
2022-08-10T05:15:52.850Z,4.8
2022-08-10T05:21:51.983Z,5.9
2022-08-10T05:27:00.727Z,2.4
2022-08-10T05:32:34.382Z,0
2022-08-10T05:38:11.174Z,2.4
2022-08-10T05:43:50.069Z,4.8
2022-08-10T05:49:33.846Z,5.9
2022-08-10T05:55:04.840Z,4.8
2022-08-10T06:00:40.746Z,2.4
2022-08-10T06:06:24.874Z,2.4
2022-08-10T06:12:25.834Z,5.9
2022-08-10T06:17:29.526Z,7.2
2022-08-10T06:28:52.847Z,7.2
2022-08-10T06:34:16.658Z,8.4
2022-08-10T06:40:03.739Z,8.4
2022-08-10T06:45:25.347Z,9.6
2022-08-10T06:51:22.451Z,9.6
2022-08-10T06:57:01.947Z,10.7
2022-08-10T07:02:12.482Z,11.9
2022-08-10T07:07:59.414Z,11.9
2022-08-10T07:14:13.834Z,15.6
2022-08-10T07:19:10.931Z,14.4
2022-08-10T07:24:39.198Z,16.8
2022-08-10T07:30:17.776Z,16.8
2022-08-10T07:36:17.518Z,16.8
2022-08-10T07:41:53.639Z,20.4
2022-08-10T07:47:13.245Z,19.2
2022-08-10T07:52:46.676Z,18
2022-08-10T07:58:35.742Z,20.4
2022-08-10T08:04:25.191Z,19.2
2022-08-10T08:10:04.349Z,19.2
2022-08-10T08:16:16.042Z,16.8
2022-08-10T08:20:58.342Z,15.6
2022-08-10T08:26:38.597Z,14.4
2022-08-10T08:32:23.419Z,15.6
2022-08-10T08:38:28.997Z,18
2022-08-10T08:43:42.302Z,18
2022-08-10T08:49:07.240Z,15.6
2022-08-10T08:54:53.850Z,16.8
2022-08-10T09:00:20.275Z,18
2022-08-10T09:06:00.593Z,16.8
2022-08-10T09:12:00.160Z,16.8
2022-08-10T09:17:13.380Z,18
2022-08-10T09:23:10.298Z,16.8
2022-08-10T09:36:19.146Z,15.6
2022-08-10T09:40:58.430Z,15.6
2022-08-10T09:45:38.280Z,15.6
2022-08-10T09:51:42.018Z,11.9
2022-08-10T09:56:48.267Z,14.4
2022-08-10T10:02:24.054Z,14.4
2022-08-10T10:08:04.608Z,13.2
2022-08-10T10:14:03.674Z,16.8
2022-08-10T10:19:24.030Z,18
2022-08-10T10:25:23.706Z,14.4
2022-08-10T10:30:36.930Z,11.9
2022-08-10T10:36:38.468Z,18
2022-08-10T10:41:56.383Z,15.6
2022-08-10T10:47:49.022Z,14.4
2022-08-10T10:53:19.130Z,14.4
2022-08-10T10:58:54.118Z,16.8
2022-08-10T11:04:38.890Z,15.6
2022-08-10T11:10:32.185Z,18
2022-08-10T11:15:58.499Z,16.8
2022-08-10T11:21:39.994Z,16.8
2022-08-10T11:27:21.761Z,15.6
2022-08-10T11:44:15.323Z,15.6
2022-08-10T11:50:09.707Z,19.2
2022-08-10T11:55:33.587Z,18
2022-08-10T12:01:05.862Z,19.2
2022-08-10T12:07:03.843Z,14.4
2022-08-10T12:12:21.972Z,19.2
2022-08-10T12:18:09.282Z,21.5
2022-08-10T12:29:26.302Z,19.2
2022-08-10T12:35:17.149Z,21.5
2022-08-10T12:41:00.605Z,23.9
2022-08-10T12:46:43.925Z,21.5
2022-08-10T12:52:16.620Z,20.4
2022-08-10T12:58:58.463Z,21.5
2022-08-10T13:04:22.238Z,19.2
2022-08-10T13:09:22.491Z,19.2
2022-08-10T13:14:53.282Z,19.2
2022-08-10T13:20:44.578Z,18
2022-08-10T13:26:26.651Z,18
2022-08-10T13:32:09.491Z,23.9
2022-08-10T13:37:34.081Z,18
2022-08-10T13:43:20.825Z,16.8
2022-08-10T13:48:39.546Z,20.4
2022-08-10T13:54:32.009Z,21.5
2022-08-10T14:00:35.748Z,20.4
2022-08-10T14:05:59.914Z,20.4
2022-08-10T14:11:46.917Z,20.4
2022-08-10T14:17:13.735Z,18
2022-08-10T14:22:59.045Z,18
2022-08-10T14:28:37.768Z,20.4
2022-08-10T14:34:15.217Z,23.9
2022-08-10T14:39:59.320Z,20.4
2022-08-10T14:45:20.739Z,16.8
2022-08-10T14:51:13.328Z,19.2
2022-08-10T14:56:56.329Z,19.2
2022-08-10T15:02:37.957Z,19.2
2022-08-10T15:08:06.332Z,18
2022-08-10T15:20:01.949Z,21.5
2022-08-10T15:25:05.452Z,20.4
2022-08-10T15:30:46.958Z,22.8
2022-08-10T15:36:36.213Z,20.4
2022-08-10T15:42:02.841Z,21.5
2022-08-10T15:47:52.889Z,21.5
2022-08-10T15:53:46.998Z,19.2
2022-08-10T15:59:15.483Z,19.2
2022-08-10T16:04:32.745Z,19.2
2022-08-10T16:10:27.093Z,19.2
2022-08-10T16:15:55.220Z,20.4
2022-08-10T16:21:43.898Z,22.8
2022-08-10T16:27:07.767Z,18
2022-08-10T16:33:00.798Z,19.2
2022-08-10T16:38:28.163Z,16.8
2022-08-10T16:44:34.796Z,16.8
2022-08-10T16:50:05.168Z,18
2022-08-10T16:55:47.733Z,16.8
2022-08-10T17:01:10.844Z,16.8
2022-08-10T17:06:56.947Z,16.8
2022-08-10T17:12:46.436Z,15.6
2022-08-10T17:18:32.224Z,16.8
2022-08-10T17:24:07.159Z,14.4
2022-08-10T17:29:54.192Z,13.2
2022-08-10T17:35:04.783Z,15.6
2022-08-10T17:41:00.358Z,14.4
2022-08-10T17:46:40.410Z,15.6
2022-08-10T17:52:21.105Z,14.4
2022-08-10T17:57:38.913Z,11.9
2022-08-10T18:03:23.421Z,10.7
2022-08-10T18:09:07.804Z,10.7
2022-08-10T18:14:52.677Z,11.9
2022-08-10T18:20:30.498Z,9.6
2022-08-10T18:25:45.648Z,8.4
2022-08-10T18:31:24.272Z,8.4
2022-08-10T18:37:03.890Z,9.6
2022-08-10T18:42:54.056Z,8.4
2022-08-10T18:48:16.423Z,3.6
2022-08-10T18:54:05.754Z,0
2022-08-10T19:00:04.192Z,0
2022-08-10T19:05:29.965Z,0
2022-08-10T19:10:43.480Z,0
2022-08-10T19:16:29.413Z,0
2022-08-10T19:22:01.639Z,0
2022-08-10T19:27:45.462Z,0
2022-08-10T19:33:24.341Z,0
2022-08-10T19:38:49.831Z,0
2022-08-10T19:44:34.739Z,0
2022-08-10T19:50:09.805Z,0
2022-08-10T19:55:36.837Z,0
2022-08-10T20:01:09.434Z,0
2022-08-10T20:06:46.773Z,0
2022-08-10T20:12:37.793Z,0
2022-08-10T20:17:51.658Z,0
2022-08-10T20:23:24.267Z,0
2022-08-10T20:29:16.571Z,0
2022-08-10T20:34:35.034Z,0
2022-08-10T20:40:21.571Z,0
2022-08-10T20:46:05.292Z,0
2022-08-10T20:51:25.331Z,0
2022-08-10T20:57:53.895Z,0
2022-08-10T21:02:51.389Z,0
2022-08-10T21:08:21.876Z,4.8
2022-08-10T21:13:55.809Z,8.4
2022-08-10T21:19:20.037Z,8.4
2022-08-10T21:25:15.816Z,8.4
2022-08-10T21:30:43.990Z,7.2
2022-08-10T21:36:17.086Z,8.4
2022-08-10T21:41:58.738Z,8.4
2022-08-10T21:48:07.565Z,9.6
2022-08-10T21:53:04.333Z,7.2
2022-08-10T21:58:59.960Z,7.2
2022-08-10T22:04:07.073Z,5.9
2022-08-10T22:10:12.148Z,5.9
2022-08-10T22:15:42.624Z,4.8
2022-08-10T22:21:08.922Z,4.8
2022-08-10T22:26:56.571Z,5.9
2022-08-10T22:32:31.921Z,5.9
2022-08-10T22:37:45.288Z,7.2
2022-08-10T22:43:31.116Z,7.2
2022-08-10T22:49:20.085Z,5.9
2022-08-10T22:54:42.602Z,5.9
2022-08-10T23:00:31.116Z,5.9
2022-08-10T23:05:54.517Z,4.8
2022-08-10T23:11:41.019Z,5.9
2022-08-10T23:17:12.741Z,4.8
2022-08-10T23:22:57.282Z,0
2022-08-10T23:28:39.529Z,0
2022-08-10T23:34:08.568Z,0
2022-08-10T23:39:24.283Z,0
2022-08-10T23:45:11.194Z,0
2022-08-10T23:50:58.106Z,0
2022-08-10T23:56:28.258Z,0
